sensor_id;sensor_type;location;lat;lon;timestamp;temperature;humidity
6110;DHT22;3085;49.444;11.054;2023-03-12T00:00:16;1.30;99.90
6110;DHT22;3085;49.444;11.054;2023-03-12T00:02:44;1.20;99.90
6110;DHT22;3085;49.444;11.054;2023-03-12T00:05:11;1.20;99.90
6110;DHT22;3085;49.444;11.054;2023-03-12T00:07:40;1.10;99.90
6110;DHT22;3085;49.444;11.054;2023-03-12T00:10:08;0.90;99.90
6110;DHT22;3085;49.444;11.054;2023-03-12T00:12:35;0.90;99.90
6110;DHT22;3085;49.444;11.054;2023-03-12T00:15:02;2.70;99.90
6110;DHT22;3085;49.444;11.054;2023-03-12T00:17:29;1.00;99.90
6110;DHT22;3085;49.444;11.054;2023-03-12T00:19:56;2.60;99.90
6110;DHT22;3085;49.444;11.054;2023-03-12T00:22:23;1.20;99.90
6110;DHT22;3085;49.444;11.054;2023-03-12T00:24:52;1.20;99.90
6110;DHT22;3085;49.444;11.054;2023-03-12T00:27:20;1.20;99.90
6110;DHT22;3085;49.444;11.054;2023-03-12T00:29:47;1.30;99.90
6110;DHT22;3085;49.444;11.054;2023-03-12T00:32:14;1.30;99.90
6110;DHT22;3085;49.444;11.054;2023-03-12T00:34:41;1.20;99.90
6110;DHT22;3085;49.444;11.054;2023-03-12T00:37:08;1.20;99.90
6110;DHT22;3085;49.444;11.054;2023-03-12T00:39:35;1.30;99.90
6110;DHT22;3085;49.444;11.054;2023-03-12T00:42:04;1.30;99.90
6110;DHT22;3085;49.444;11.054;2023-03-12T00:44:31;1.40;99.90
6110;DHT22;3085;49.444;11.054;2023-03-12T00:46:58;1.30;99.90
6110;DHT22;3085;49.444;11.054;2023-03-12T00:49:25;1.30;99.90
6110;DHT22;3085;49.444;11.054;2023-03-12T00:51:55;1.30;99.90
6110;DHT22;3085;49.444;11.054;2023-03-12T00:54:22;2.60;99.90
6110;DHT22;3085;49.444;11.054;2023-03-12T00:56:49;1.30;99.90
6110;DHT22;3085;49.444;11.054;2023-03-12T00:59:18;1.90;99.90
6110;DHT22;3085;49.444;11.054;2023-03-12T01:01:45;0.60;99.90
6110;DHT22;3085;49.444;11.054;2023-03-12T01:04:12;1.20;99.90
6110;DHT22;3085;49.444;11.054;2023-03-12T01:06:39;1.70;99.90
6110;DHT22;3085;49.444;11.054;2023-03-12T01:09:07;1.90;99.90
6110;DHT22;3085;49.444;11.054;2023-03-12T01:11:34;2.90;99.90
6110;DHT22;3085;49.444;11.054;2023-03-12T01:14:02;1.20;99.90
6110;DHT22;3085;49.444;11.054;2023-03-12T01:16:31;1.20;99.90
6110;DHT22;3085;49.444;11.054;2023-03-12T01:19:00;2.20;99.90
6110;DHT22;3085;49.444;11.054;2023-03-12T01:21:27;1.30;99.90
6110;DHT22;3085;49.444;11.054;2023-03-12T01:23:55;1.60;99.90
6110;DHT22;3085;49.444;11.054;2023-03-12T01:26:23;1.30;99.90
6110;DHT22;3085;49.444;11.054;2023-03-12T01:28:50;1.30;99.90
6110;DHT22;3085;49.444;11.054;2023-03-12T01:31:17;1.50;99.90
6110;DHT22;3085;49.444;11.054;2023-03-12T01:33:47;1.10;99.90
6110;DHT22;3085;49.444;11.054;2023-03-12T01:36:16;1.10;99.90
6110;DHT22;3085;49.444;11.054;2023-03-12T01:38:43;1.10;99.90
6110;DHT22;3085;49.444;11.054;2023-03-12T01:41:10;1.10;99.90
6110;DHT22;3085;49.444;11.054;2023-03-12T01:43:38;1.10;99.90
6110;DHT22;3085;49.444;11.054;2023-03-12T01:46:21;1.00;99.90
6110;DHT22;3085;49.444;11.054;2023-03-12T01:48:54;1.00;99.90
6110;DHT22;3085;49.444;11.054;2023-03-12T01:51:23;1.00;99.90
6110;DHT22;3085;49.444;11.054;2023-03-12T01:53:52;0.90;99.90
6110;DHT22;3085;49.444;11.054;2023-03-12T01:56:26;1.10;99.90
6110;DHT22;3085;49.444;11.054;2023-03-12T01:58:56;1.80;99.90
6110;DHT22;3085;49.444;11.054;2023-03-12T02:01:24;1.90;99.90
6110;DHT22;3085;49.444;11.054;2023-03-12T02:03:59;1.00;99.90
6110;DHT22;3085;49.444;11.054;2023-03-12T02:06:30;1.10;99.90
6110;DHT22;3085;49.444;11.054;2023-03-12T02:09:00;1.00;99.90
6110;DHT22;3085;49.444;11.054;2023-03-12T02:11:28;1.10;99.90
6110;DHT22;3085;49.444;11.054;2023-03-12T02:13:55;1.00;99.90
6110;DHT22;3085;49.444;11.054;2023-03-12T02:16:23;1.10;99.90
6110;DHT22;3085;49.444;11.054;2023-03-12T02:18:52;1.00;99.90
6110;DHT22;3085;49.444;11.054;2023-03-12T02:21:23;2.70;99.90
6110;DHT22;3085;49.444;11.054;2023-03-12T02:23:56;1.00;99.90
6110;DHT22;3085;49.444;11.054;2023-03-12T02:26:29;1.00;99.90
6110;DHT22;3085;49.444;11.054;2023-03-12T02:28:59;1.10;99.90
6110;DHT22;3085;49.444;11.054;2023-03-12T02:31:30;1.10;99.90
6110;DHT22;3085;49.444;11.054;2023-03-12T02:33:58;1.10;99.90
6110;DHT22;3085;49.444;11.054;2023-03-12T02:36:26;2.90;99.90
6110;DHT22;3085;49.444;11.054;2023-03-12T02:38:54;1.20;99.90
6110;DHT22;3085;49.444;11.054;2023-03-12T02:41:24;2.60;99.90
6110;DHT22;3085;49.444;11.054;2023-03-12T02:43:59;1.10;99.90
6110;DHT22;3085;49.444;11.054;2023-03-12T02:46:35;1.50;99.90
6110;DHT22;3085;49.444;11.054;2023-03-12T02:49:04;1.10;99.90
6110;DHT22;3085;49.444;11.054;2023-03-12T02:51:31;1.10;99.90
6110;DHT22;3085;49.444;11.054;2023-03-12T02:53:58;1.60;99.90
6110;DHT22;3085;49.444;11.054;2023-03-12T02:56:27;1.10;99.90
6110;DHT22;3085;49.444;11.054;2023-03-12T02:58:56;1.00;99.90
6110;DHT22;3085;49.444;11.054;2023-03-12T03:01:26;1.00;99.90
6110;DHT22;3085;49.444;11.054;2023-03-12T03:03:53;2.50;99.90
6110;DHT22;3085;49.444;11.054;2023-03-12T03:06:23;1.10;99.90
6110;DHT22;3085;49.444;11.054;2023-03-12T03:08:50;1.10;99.90
6110;DHT22;3085;49.444;11.054;2023-03-12T03:11:20;1.20;99.90
6110;DHT22;3085;49.444;11.054;2023-03-12T03:13:49;1.00;99.90
6110;DHT22;3085;49.444;11.054;2023-03-12T03:16:17;1.10;99.90
6110;DHT22;3085;49.444;11.054;2023-03-12T03:18:44;1.20;99.90
6110;DHT22;3085;49.444;11.054;2023-03-12T03:21:12;1.20;99.90
6110;DHT22;3085;49.444;11.054;2023-03-12T03:23:44;1.20;99.90
6110;DHT22;3085;49.444;11.054;2023-03-12T03:26:12;1.20;99.90
6110;DHT22;3085;49.444;11.054;2023-03-12T03:28:39;1.10;99.90
6110;DHT22;3085;49.444;11.054;2023-03-12T03:31:07;0.90;99.90
6110;DHT22;3085;49.444;11.054;2023-03-12T03:33:38;1.00;99.90
6110;DHT22;3085;49.444;11.054;2023-03-12T03:36:07;1.00;99.90
6110;DHT22;3085;49.444;11.054;2023-03-12T03:38:34;0.90;99.90
6110;DHT22;3085;49.444;11.054;2023-03-12T03:41:04;0.90;99.90
6110;DHT22;3085;49.444;11.054;2023-03-12T03:43:31;0.70;99.90
6110;DHT22;3085;49.444;11.054;2023-03-12T03:45:59;1.30;99.90
6110;DHT22;3085;49.444;11.054;2023-03-12T03:48:27;1.20;99.90
6110;DHT22;3085;49.444;11.054;2023-03-12T03:50:58;2.10;99.90
6110;DHT22;3085;49.444;11.054;2023-03-12T03:53:25;0.80;99.90
6110;DHT22;3085;49.444;11.054;2023-03-12T03:55:55;0.80;99.90
6110;DHT22;3085;49.444;11.054;2023-03-12T03:58:22;0.90;99.90
6110;DHT22;3085;49.444;11.054;2023-03-12T04:00:49;0.90;99.90
6110;DHT22;3085;49.444;11.054;2023-03-12T04:03:16;1.70;99.90
6110;DHT22;3085;49.444;11.054;2023-03-12T04:05:51;0.70;99.90
6110;DHT22;3085;49.444;11.054;2023-03-12T04:08:20;0.70;99.90
6110;DHT22;3085;49.444;11.054;2023-03-12T04:10:47;0.60;99.90
6110;DHT22;3085;49.444;11.054;2023-03-12T04:13:15;0.50;99.90
6110;DHT22;3085;49.444;11.054;2023-03-12T04:15:45;0.40;99.90
6110;DHT22;3085;49.444;11.054;2023-03-12T04:18:13;1.20;99.90
6110;DHT22;3085;49.444;11.054;2023-03-12T04:20:40;0.40;99.90
6110;DHT22;3085;49.444;11.054;2023-03-12T04:23:07;0.40;99.90
6110;DHT22;3085;49.444;11.054;2023-03-12T04:25:35;0.90;99.90
6110;DHT22;3085;49.444;11.054;2023-03-12T04:28:03;0.50;99.90
6110;DHT22;3085;49.444;11.054;2023-03-12T04:30:30;0.50;99.90
6110;DHT22;3085;49.444;11.054;2023-03-12T04:32:57;0.50;99.90
6110;DHT22;3085;49.444;11.054;2023-03-12T04:35:24;0.40;99.90
6110;DHT22;3085;49.444;11.054;2023-03-12T04:37:51;0.40;99.90
6110;DHT22;3085;49.444;11.054;2023-03-12T04:40:18;0.50;99.90
6110;DHT22;3085;49.444;11.054;2023-03-12T04:42:46;0.50;99.90
6110;DHT22;3085;49.444;11.054;2023-03-12T04:45:13;0.60;99.90
6110;DHT22;3085;49.444;11.054;2023-03-12T04:47:40;0.50;99.90
6110;DHT22;3085;49.444;11.054;2023-03-12T04:50:08;0.50;99.90
6110;DHT22;3085;49.444;11.054;2023-03-12T04:52:35;0.50;99.90
6110;DHT22;3085;49.444;11.054;2023-03-12T04:55:03;0.60;99.90
6110;DHT22;3085;49.444;11.054;2023-03-12T04:57:30;0.50;99.90
6110;DHT22;3085;49.444;11.054;2023-03-12T04:59:58;0.40;99.90
6110;DHT22;3085;49.444;11.054;2023-03-12T05:02:25;0.50;99.90
6110;DHT22;3085;49.444;11.054;2023-03-12T05:04:54;0.50;99.90
6110;DHT22;3085;49.444;11.054;2023-03-12T05:07:21;0.50;99.90
6110;DHT22;3085;49.444;11.054;2023-03-12T05:09:48;0.50;99.90
6110;DHT22;3085;49.444;11.054;2023-03-12T05:12:15;0.40;99.90
6110;DHT22;3085;49.444;11.054;2023-03-12T05:14:41;0.50;99.90
6110;DHT22;3085;49.444;11.054;2023-03-12T05:17:10;0.60;99.90
6110;DHT22;3085;49.444;11.054;2023-03-12T05:19:36;0.60;99.90
6110;DHT22;3085;49.444;11.054;2023-03-12T05:22:03;0.70;99.90
6110;DHT22;3085;49.444;11.054;2023-03-12T05:24:30;0.60;99.90
6110;DHT22;3085;49.444;11.054;2023-03-12T05:26:57;0.60;99.90
6110;DHT22;3085;49.444;11.054;2023-03-12T05:29:24;0.70;99.90
6110;DHT22;3085;49.444;11.054;2023-03-12T05:31:51;0.80;99.90
6110;DHT22;3085;49.444;11.054;2023-03-12T05:34:19;0.70;99.90
6110;DHT22;3085;49.444;11.054;2023-03-12T05:36:46;0.70;99.90
6110;DHT22;3085;49.444;11.054;2023-03-12T05:39:12;0.80;99.90
6110;DHT22;3085;49.444;11.054;2023-03-12T05:41:39;0.80;99.90
6110;DHT22;3085;49.444;11.054;2023-03-12T05:44:08;0.80;99.90
6110;DHT22;3085;49.444;11.054;2023-03-12T05:46:36;0.70;99.90
6110;DHT22;3085;49.444;11.054;2023-03-12T05:49:03;0.40;99.90
6110;DHT22;3085;49.444;11.054;2023-03-12T05:51:31;0.50;99.90
6110;DHT22;3085;49.444;11.054;2023-03-12T05:53:57;0.40;99.90
6110;DHT22;3085;49.444;11.054;2023-03-12T05:56:24;0.50;99.90
6110;DHT22;3085;49.444;11.054;2023-03-12T05:58:51;0.20;99.90
6110;DHT22;3085;49.444;11.054;2023-03-12T06:01:20;0.30;99.90
6110;DHT22;3085;49.444;11.054;2023-03-12T06:03:48;0.50;99.90
6110;DHT22;3085;49.444;11.054;2023-03-12T06:06:15;0.30;99.90
6110;DHT22;3085;49.444;11.054;2023-03-12T06:08:43;0.50;99.90
6110;DHT22;3085;49.444;11.054;2023-03-12T06:11:11;0.50;99.90
6110;DHT22;3085;49.444;11.054;2023-03-12T06:13:38;0.50;99.90
6110;DHT22;3085;49.444;11.054;2023-03-12T06:16:07;0.60;99.90
6110;DHT22;3085;49.444;11.054;2023-03-12T06:18:35;0.60;99.90
6110;DHT22;3085;49.444;11.054;2023-03-12T06:21:09;0.70;99.90
6110;DHT22;3085;49.444;11.054;2023-03-12T06:23:37;1.40;99.90
6110;DHT22;3085;49.444;11.054;2023-03-12T06:26:06;0.70;99.90
6110;DHT22;3085;49.444;11.054;2023-03-12T06:28:33;0.70;99.90
6110;DHT22;3085;49.444;11.054;2023-03-12T06:31:01;0.70;99.90
6110;DHT22;3085;49.444;11.054;2023-03-12T06:33:28;0.70;99.90
6110;DHT22;3085;49.444;11.054;2023-03-12T06:35:56;0.80;99.90
6110;DHT22;3085;49.444;11.054;2023-03-12T06:38:23;0.70;99.90
6110;DHT22;3085;49.444;11.054;2023-03-12T06:40:54;0.80;99.90
6110;DHT22;3085;49.444;11.054;2023-03-12T06:43:23;0.70;99.90
6110;DHT22;3085;49.444;11.054;2023-03-12T06:45:50;1.50;99.90
6110;DHT22;3085;49.444;11.054;2023-03-12T06:48:17;0.90;99.90
6110;DHT22;3085;49.444;11.054;2023-03-12T06:50:44;0.90;99.90
6110;DHT22;3085;49.444;11.054;2023-03-12T06:53:11;1.00;99.90
6110;DHT22;3085;49.444;11.054;2023-03-12T06:55:38;0.90;99.90
6110;DHT22;3085;49.444;11.054;2023-03-12T06:58:04;1.00;99.90
6110;DHT22;3085;49.444;11.054;2023-03-12T07:00:32;1.10;99.90
6110;DHT22;3085;49.444;11.054;2023-03-12T07:02:59;1.10;99.90
6110;DHT22;3085;49.444;11.054;2023-03-12T07:05:27;1.20;99.90
6110;DHT22;3085;49.444;11.054;2023-03-12T07:07:53;1.30;99.90
6110;DHT22;3085;49.444;11.054;2023-03-12T07:10:21;1.30;99.90
6110;DHT22;3085;49.444;11.054;2023-03-12T07:12:47;1.30;99.90
6110;DHT22;3085;49.444;11.054;2023-03-12T07:15:15;1.40;99.90
6110;DHT22;3085;49.444;11.054;2023-03-12T07:17:43;1.40;99.90
6110;DHT22;3085;49.444;11.054;2023-03-12T07:20:11;1.40;99.90
6110;DHT22;3085;49.444;11.054;2023-03-12T07:22:38;1.50;99.90
6110;DHT22;3085;49.444;11.054;2023-03-12T07:25:05;1.50;99.90
6110;DHT22;3085;49.444;11.054;2023-03-12T07:27:32;1.60;99.90
6110;DHT22;3085;49.444;11.054;2023-03-12T07:29:59;1.60;99.90
6110;DHT22;3085;49.444;11.054;2023-03-12T07:32:26;1.60;99.90
6110;DHT22;3085;49.444;11.054;2023-03-12T07:34:54;1.60;99.90
6110;DHT22;3085;49.444;11.054;2023-03-12T07:37:21;1.80;99.90
6110;DHT22;3085;49.444;11.054;2023-03-12T07:39:48;1.80;99.90
6110;DHT22;3085;49.444;11.054;2023-03-12T07:42:19;1.80;99.90
6110;DHT22;3085;49.444;11.054;2023-03-12T07:44:51;1.90;99.90
6110;DHT22;3085;49.444;11.054;2023-03-12T07:47:18;1.90;99.90
6110;DHT22;3085;49.444;11.054;2023-03-12T07:49:45;1.90;99.90
6110;DHT22;3085;49.444;11.054;2023-03-12T07:52:13;1.90;99.90
6110;DHT22;3085;49.444;11.054;2023-03-12T07:54:40;2.00;99.90
6110;DHT22;3085;49.444;11.054;2023-03-12T07:57:07;2.10;99.90
6110;DHT22;3085;49.444;11.054;2023-03-12T07:59:34;2.10;99.90
6110;DHT22;3085;49.444;11.054;2023-03-12T08:02:00;2.10;99.90
6110;DHT22;3085;49.444;11.054;2023-03-12T08:04:27;2.10;99.90
6110;DHT22;3085;49.444;11.054;2023-03-12T08:06:54;2.10;99.90
6110;DHT22;3085;49.444;11.054;2023-03-12T08:09:22;2.30;99.90
6110;DHT22;3085;49.444;11.054;2023-03-12T08:11:49;2.30;99.90
6110;DHT22;3085;49.444;11.054;2023-03-12T08:14:16;2.40;99.90
6110;DHT22;3085;49.444;11.054;2023-03-12T08:16:43;2.50;99.90
6110;DHT22;3085;49.444;11.054;2023-03-12T08:19:10;2.50;99.90
6110;DHT22;3085;49.444;11.054;2023-03-12T08:21:39;2.60;99.90
6110;DHT22;3085;49.444;11.054;2023-03-12T08:24:07;2.80;99.90
6110;DHT22;3085;49.444;11.054;2023-03-12T08:26:35;3.00;99.90
6110;DHT22;3085;49.444;11.054;2023-03-12T08:29:02;3.00;99.90
6110;DHT22;3085;49.444;11.054;2023-03-12T08:31:28;3.20;99.90
6110;DHT22;3085;49.444;11.054;2023-03-12T08:33:55;3.10;99.90
6110;DHT22;3085;49.444;11.054;2023-03-12T08:36:22;3.00;99.90
6110;DHT22;3085;49.444;11.054;2023-03-12T08:38:49;3.00;99.90
6110;DHT22;3085;49.444;11.054;2023-03-12T08:41:16;3.10;99.90
6110;DHT22;3085;49.444;11.054;2023-03-12T08:43:44;3.10;99.90
6110;DHT22;3085;49.444;11.054;2023-03-12T08:46:11;3.10;99.90
6110;DHT22;3085;49.444;11.054;2023-03-12T08:48:38;3.20;99.90
6110;DHT22;3085;49.444;11.054;2023-03-12T08:51:06;3.20;99.90
6110;DHT22;3085;49.444;11.054;2023-03-12T08:53:34;3.40;99.90
6110;DHT22;3085;49.444;11.054;2023-03-12T08:56:02;3.20;99.90
6110;DHT22;3085;49.444;11.054;2023-03-12T08:58:29;3.20;99.90
6110;DHT22;3085;49.444;11.054;2023-03-12T09:00:58;3.20;99.90
6110;DHT22;3085;49.444;11.054;2023-03-12T09:03:25;3.30;99.90
6110;DHT22;3085;49.444;11.054;2023-03-12T09:06:02;3.30;99.90
6110;DHT22;3085;49.444;11.054;2023-03-12T09:08:29;3.30;99.90
6110;DHT22;3085;49.444;11.054;2023-03-12T09:10:58;3.90;99.90
6110;DHT22;3085;49.444;11.054;2023-03-12T09:13:26;3.30;99.90
6110;DHT22;3085;49.444;11.054;2023-03-12T09:15:59;3.70;99.90
6110;DHT22;3085;49.444;11.054;2023-03-12T09:18:26;3.60;99.90
6110;DHT22;3085;49.444;11.054;2023-03-12T09:20:53;3.70;99.90
6110;DHT22;3085;49.444;11.054;2023-03-12T09:23:20;3.80;99.90
6110;DHT22;3085;49.444;11.054;2023-03-12T09:25:47;3.90;99.90
6110;DHT22;3085;49.444;11.054;2023-03-12T09:28:14;4.10;99.90
6110;DHT22;3085;49.444;11.054;2023-03-12T09:30:41;4.20;99.90
6110;DHT22;3085;49.444;11.054;2023-03-12T09:33:09;4.40;99.90
6110;DHT22;3085;49.444;11.054;2023-03-12T09:35:37;4.60;99.90
6110;DHT22;3085;49.444;11.054;2023-03-12T09:38:05;4.50;99.90
6110;DHT22;3085;49.444;11.054;2023-03-12T09:40:33;4.30;99.90
6110;DHT22;3085;49.444;11.054;2023-03-12T09:43:04;4.30;99.90
6110;DHT22;3085;49.444;11.054;2023-03-12T09:45:36;4.30;99.90
6110;DHT22;3085;49.444;11.054;2023-03-12T09:48:05;4.40;99.90
6110;DHT22;3085;49.444;11.054;2023-03-12T09:50:35;4.40;99.90
6110;DHT22;3085;49.444;11.054;2023-03-12T09:53:10;4.50;99.90
6110;DHT22;3085;49.444;11.054;2023-03-12T09:55:41;4.60;99.90
6110;DHT22;3085;49.444;11.054;2023-03-12T09:58:13;4.50;99.90
6110;DHT22;3085;49.444;11.054;2023-03-12T10:00:42;4.60;99.90
6110;DHT22;3085;49.444;11.054;2023-03-12T10:03:18;4.60;99.90
6110;DHT22;3085;49.444;11.054;2023-03-12T10:06:02;4.70;99.90
6110;DHT22;3085;49.444;11.054;2023-03-12T10:08:41;4.70;99.90
6110;DHT22;3085;49.444;11.054;2023-03-12T10:11:17;4.70;99.90
6110;DHT22;3085;49.444;11.054;2023-03-12T10:13:56;5.40;99.90
6110;DHT22;3085;49.444;11.054;2023-03-12T10:16:38;5.60;99.90
6110;DHT22;3085;49.444;11.054;2023-03-12T10:19:30;5.70;99.90
6110;DHT22;3085;49.444;11.054;2023-03-12T10:22:09;5.50;99.90
6110;DHT22;3085;49.444;11.054;2023-03-12T10:24:48;5.30;99.90
6110;DHT22;3085;49.444;11.054;2023-03-12T10:27:28;5.10;99.90
6110;DHT22;3085;49.444;11.054;2023-03-12T10:29:56;5.30;99.90
6110;DHT22;3085;49.444;11.054;2023-03-12T10:32:26;5.30;99.90
6110;DHT22;3085;49.444;11.054;2023-03-12T10:34:57;6.30;99.90
6110;DHT22;3085;49.444;11.054;2023-03-12T10:37:28;6.60;99.90
6110;DHT22;3085;49.444;11.054;2023-03-12T10:39:57;5.20;99.90
6110;DHT22;3085;49.444;11.054;2023-03-12T10:42:27;5.30;99.90
6110;DHT22;3085;49.444;11.054;2023-03-12T10:44:57;5.40;99.90
6110;DHT22;3085;49.444;11.054;2023-03-12T10:47:32;5.30;99.90
6110;DHT22;3085;49.444;11.054;2023-03-12T10:50:13;5.30;99.90
6110;DHT22;3085;49.444;11.054;2023-03-12T10:52:42;5.30;99.90
6110;DHT22;3085;49.444;11.054;2023-03-12T10:55:12;5.30;99.90
6110;DHT22;3085;49.444;11.054;2023-03-12T10:57:40;5.30;99.90
6110;DHT22;3085;49.444;11.054;2023-03-12T11:00:09;5.20;99.90
6110;DHT22;3085;49.444;11.054;2023-03-12T11:02:40;5.10;99.90
6110;DHT22;3085;49.444;11.054;2023-03-12T11:05:19;5.10;99.90
6110;DHT22;3085;49.444;11.054;2023-03-12T11:07:48;5.10;99.90
6110;DHT22;3085;49.444;11.054;2023-03-12T11:10:18;5.20;99.90
6110;DHT22;3085;49.444;11.054;2023-03-12T11:12:55;5.30;99.90
6110;DHT22;3085;49.444;11.054;2023-03-12T11:15:24;5.30;99.90
6110;DHT22;3085;49.444;11.054;2023-03-12T11:18:21;5.30;99.90
6110;DHT22;3085;49.444;11.054;2023-03-12T11:20:50;5.20;99.90
6110;DHT22;3085;49.444;11.054;2023-03-12T11:23:22;5.20;99.90
6110;DHT22;3085;49.444;11.054;2023-03-12T11:25:55;5.30;99.90
6110;DHT22;3085;49.444;11.054;2023-03-12T11:28:24;5.40;99.90
6110;DHT22;3085;49.444;11.054;2023-03-12T11:30:56;5.40;99.90
6110;DHT22;3085;49.444;11.054;2023-03-12T11:33:24;5.40;99.90
6110;DHT22;3085;49.444;11.054;2023-03-12T11:36:03;6.20;99.90
6110;DHT22;3085;49.444;11.054;2023-03-12T11:38:38;5.40;99.90
6110;DHT22;3085;49.444;11.054;2023-03-12T11:41:27;6.10;99.90
6110;DHT22;3085;49.444;11.054;2023-03-12T11:44:15;5.50;99.90
6110;DHT22;3085;49.444;11.054;2023-03-12T11:46:51;5.50;99.90
6110;DHT22;3085;49.444;11.054;2023-03-12T11:49:34;5.50;99.90
6110;DHT22;3085;49.444;11.054;2023-03-12T11:52:11;5.50;99.90
6110;DHT22;3085;49.444;11.054;2023-03-12T11:55:15;5.50;99.90
6110;DHT22;3085;49.444;11.054;2023-03-12T11:57:52;5.40;99.90
6110;DHT22;3085;49.444;11.054;2023-03-12T12:00:26;5.40;99.90
6110;DHT22;3085;49.444;11.054;2023-03-12T12:03:29;5.40;99.90
6110;DHT22;3085;49.444;11.054;2023-03-12T12:06:01;5.50;99.90
6110;DHT22;3085;49.444;11.054;2023-03-12T12:08:49;5.60;99.90
6110;DHT22;3085;49.444;11.054;2023-03-12T12:11:26;5.60;99.90
6110;DHT22;3085;49.444;11.054;2023-03-12T12:14:05;5.60;99.90
6110;DHT22;3085;49.444;11.054;2023-03-12T12:16:49;5.60;99.90
6110;DHT22;3085;49.444;11.054;2023-03-12T12:19:38;5.60;99.90
6110;DHT22;3085;49.444;11.054;2023-03-12T12:22:23;5.70;99.90
6110;DHT22;3085;49.444;11.054;2023-03-12T12:27:56;5.60;99.90
6110;DHT22;3085;49.444;11.054;2023-03-12T12:30:39;5.50;99.90
6110;DHT22;3085;49.444;11.054;2023-03-12T12:33:21;5.50;99.90
6110;DHT22;3085;49.444;11.054;2023-03-12T12:35:52;5.60;99.90
6110;DHT22;3085;49.444;11.054;2023-03-12T12:38:23;5.70;99.90
6110;DHT22;3085;49.444;11.054;2023-03-12T12:40:58;5.70;99.90
6110;DHT22;3085;49.444;11.054;2023-03-12T12:43:31;5.70;99.90
6110;DHT22;3085;49.444;11.054;2023-03-12T12:46:03;5.70;99.90
6110;DHT22;3085;49.444;11.054;2023-03-12T12:48:34;5.80;99.90
6110;DHT22;3085;49.444;11.054;2023-03-12T12:51:03;5.70;99.90
6110;DHT22;3085;49.444;11.054;2023-03-12T12:53:36;5.80;99.90
6110;DHT22;3085;49.444;11.054;2023-03-12T12:56:10;5.60;99.90
6110;DHT22;3085;49.444;11.054;2023-03-12T12:59:22;5.70;99.90
6110;DHT22;3085;49.444;11.054;2023-03-12T13:01:52;5.80;99.90
6110;DHT22;3085;49.444;11.054;2023-03-12T13:04:24;5.90;99.90
6110;DHT22;3085;49.444;11.054;2023-03-12T13:06:55;5.80;99.90
6110;DHT22;3085;49.444;11.054;2023-03-12T13:09:34;5.80;99.90
6110;DHT22;3085;49.444;11.054;2023-03-12T13:12:13;5.90;99.90
6110;DHT22;3085;49.444;11.054;2023-03-12T13:14:43;5.90;99.90
6110;DHT22;3085;49.444;11.054;2023-03-12T13:17:28;5.90;99.90
6110;DHT22;3085;49.444;11.054;2023-03-12T13:20:13;6.10;99.90
6110;DHT22;3085;49.444;11.054;2023-03-12T13:22:56;6.00;99.90
6110;DHT22;3085;49.444;11.054;2023-03-12T13:25:34;6.00;99.90
6110;DHT22;3085;49.444;11.054;2023-03-12T13:28:29;5.90;99.90
6110;DHT22;3085;49.444;11.054;2023-03-12T13:31:02;6.30;99.90
6110;DHT22;3085;49.444;11.054;2023-03-12T13:33:40;6.00;99.90
6110;DHT22;3085;49.444;11.054;2023-03-12T13:36:19;6.00;99.90
6110;DHT22;3085;49.444;11.054;2023-03-12T13:38:54;6.00;99.90
6110;DHT22;3085;49.444;11.054;2023-03-12T13:41:30;5.90;99.90
6110;DHT22;3085;49.444;11.054;2023-03-12T13:43:57;5.90;99.90
6110;DHT22;3085;49.444;11.054;2023-03-12T13:46:44;5.90;99.90
6110;DHT22;3085;49.444;11.054;2023-03-12T13:49:16;6.00;99.90
6110;DHT22;3085;49.444;11.054;2023-03-12T13:54:58;6.00;99.90
6110;DHT22;3085;49.444;11.054;2023-03-12T13:57:32;6.00;99.90
6110;DHT22;3085;49.444;11.054;2023-03-12T14:00:03;6.10;99.90
6110;DHT22;3085;49.444;11.054;2023-03-12T14:02:35;6.20;99.90
6110;DHT22;3085;49.444;11.054;2023-03-12T14:05:06;6.20;99.90
6110;DHT22;3085;49.444;11.054;2023-03-12T14:07:53;6.20;99.90
6110;DHT22;3085;49.444;11.054;2023-03-12T14:10:31;6.40;99.90
6110;DHT22;3085;49.444;11.054;2023-03-12T14:13:08;6.50;99.90
6110;DHT22;3085;49.444;11.054;2023-03-12T14:15:43;6.50;99.90
6110;DHT22;3085;49.444;11.054;2023-03-12T14:18:16;6.50;99.90
6110;DHT22;3085;49.444;11.054;2023-03-12T14:20:51;6.60;99.90
6110;DHT22;3085;49.444;11.054;2023-03-12T14:23:19;6.60;99.90
6110;DHT22;3085;49.444;11.054;2023-03-12T14:25:47;6.60;99.90
6110;DHT22;3085;49.444;11.054;2023-03-12T14:28:17;6.70;99.90
6110;DHT22;3085;49.444;11.054;2023-03-12T14:30:49;6.70;99.90
6110;DHT22;3085;49.444;11.054;2023-03-12T14:33:23;7.00;99.90
6110;DHT22;3085;49.444;11.054;2023-03-12T14:35:56;6.80;99.90
6110;DHT22;3085;49.444;11.054;2023-03-12T14:38:27;6.90;99.90
6110;DHT22;3085;49.444;11.054;2023-03-12T14:41:01;7.10;99.90
6110;DHT22;3085;49.444;11.054;2023-03-12T14:43:30;7.10;99.90
6110;DHT22;3085;49.444;11.054;2023-03-12T14:45:59;7.20;99.90
6110;DHT22;3085;49.444;11.054;2023-03-12T14:48:29;7.30;99.90
6110;DHT22;3085;49.444;11.054;2023-03-12T14:50:57;7.30;99.90
6110;DHT22;3085;49.444;11.054;2023-03-12T14:53:26;7.40;99.90
6110;DHT22;3085;49.444;11.054;2023-03-12T14:55:58;7.60;99.90
6110;DHT22;3085;49.444;11.054;2023-03-12T14:58:26;7.70;99.90
6110;DHT22;3085;49.444;11.054;2023-03-12T15:00:55;9.00;99.90
6110;DHT22;3085;49.444;11.054;2023-03-12T15:03:24;7.80;99.90
6110;DHT22;3085;49.444;11.054;2023-03-12T15:05:53;7.90;99.90
6110;DHT22;3085;49.444;11.054;2023-03-12T15:08:20;7.80;99.90
6110;DHT22;3085;49.444;11.054;2023-03-12T15:10:48;7.80;99.90
6110;DHT22;3085;49.444;11.054;2023-03-12T15:13:16;7.90;99.90
6110;DHT22;3085;49.444;11.054;2023-03-12T15:15:47;7.90;99.90
6110;DHT22;3085;49.444;11.054;2023-03-12T15:18:17;8.00;99.90
6110;DHT22;3085;49.444;11.054;2023-03-12T15:20:45;7.90;99.90
6110;DHT22;3085;49.444;11.054;2023-03-12T15:23:14;8.00;99.90
6110;DHT22;3085;49.444;11.054;2023-03-12T15:25:44;8.00;99.90
6110;DHT22;3085;49.444;11.054;2023-03-12T15:28:26;8.00;99.90
6110;DHT22;3085;49.444;11.054;2023-03-12T15:31:09;8.10;99.90
6110;DHT22;3085;49.444;11.054;2023-03-12T15:33:36;8.20;99.90
6110;DHT22;3085;49.444;11.054;2023-03-12T15:36:05;8.30;99.90
6110;DHT22;3085;49.444;11.054;2023-03-12T15:38:46;8.30;99.90
6110;DHT22;3085;49.444;11.054;2023-03-12T15:41:17;8.30;99.90
6110;DHT22;3085;49.444;11.054;2023-03-12T15:43:46;8.30;99.90
6110;DHT22;3085;49.444;11.054;2023-03-12T15:46:16;8.40;99.90
6110;DHT22;3085;49.444;11.054;2023-03-12T15:48:47;8.40;99.90
6110;DHT22;3085;49.444;11.054;2023-03-12T15:51:27;8.50;99.90
6110;DHT22;3085;49.444;11.054;2023-03-12T15:54:00;8.50;99.90
6110;DHT22;3085;49.444;11.054;2023-03-12T15:56:27;8.60;99.90
6110;DHT22;3085;49.444;11.054;2023-03-12T15:59:04;9.70;99.90
6110;DHT22;3085;49.444;11.054;2023-03-12T16:01:43;8.70;99.90
6110;DHT22;3085;49.444;11.054;2023-03-12T16:04:11;8.80;99.90
6110;DHT22;3085;49.444;11.054;2023-03-12T16:09:15;9.00;99.90
6110;DHT22;3085;49.444;11.054;2023-03-12T16:11:47;9.00;99.90
6110;DHT22;3085;49.444;11.054;2023-03-12T16:14:17;10.20;99.90
6110;DHT22;3085;49.444;11.054;2023-03-12T16:16:45;9.30;99.90
6110;DHT22;3085;49.444;11.054;2023-03-12T16:19:15;8.90;99.90
6110;DHT22;3085;49.444;11.054;2023-03-12T16:21:43;9.10;99.90
6110;DHT22;3085;49.444;11.054;2023-03-12T16:24:11;8.90;99.90
6110;DHT22;3085;49.444;11.054;2023-03-12T16:26:45;8.90;99.90
6110;DHT22;3085;49.444;11.054;2023-03-12T16:29:16;8.80;99.90
6110;DHT22;3085;49.444;11.054;2023-03-12T16:31:44;8.80;99.90